Time;durP1;ratioP1;P1;durP2;ratioP2;P2;SDS_P1;SDS_P2;PMS_P1;PMS_P2;Temp;Humidity;BMP_temperature;BMP_pressure;BME280_temperature;BME280_humidity;BME280_pressure;Samples;Min_cycle;Max_cycle;Signal;HPM_P1;HPM_P2
2023/08/05 00:00:16;;;;;;;;;;;;;;;28.94;41.71;94222.16;4991694;28;7329;-63
2023/08/05 00:02:56;;;;;;;;;;;;;;;28.94;41.42;94219.38;4989320;28;8862;-63
2023/08/05 00:05:30;;;;;;;;;;;;;;;28.90;41.73;94216.19;4979245;28;8781;-63
2023/08/05 00:07:58;;;;;;;;;;;;;;;28.88;41.77;94212.47;4982622;28;7437;-64
2023/08/05 00:10:49;;;;;;;;;;;;;;;28.90;41.75;94220.97;4991088;28;9207;-64
2023/08/05 00:13:16;;;;;;;;;;;;;;;28.88;41.56;94218.72;4990923;28;7095;-64
2023/08/05 00:15:42;;;;;;;;;;;;;;;28.90;41.63;94215.44;5002224;28;8499;-64
2023/08/05 00:18:10;;;;;;;;;;;;;;;28.91;42.01;94216.91;4995349;28;7360;-64
2023/08/05 00:20:36;;;;;;;;;;;;;;;28.95;41.52;94222.88;4994716;28;7194;-64
2023/08/05 00:23:03;;;;;;;;;;;;;;;28.92;41.57;94213.63;4997302;28;6987;-64
2023/08/05 00:25:36;;;;;;;;;;;;;;;28.93;41.24;94206.81;4989104;28;7301;-64
2023/08/05 00:28:23;;;;;;;;;;;;;;;28.92;41.83;94196.28;5024980;28;9215;-63
2023/08/05 00:30:49;;;;;;;;;;;;;;;28.87;41.05;94189.56;4985404;28;7199;-63
2023/08/05 00:33:18;;;;;;;;;;;;;;;28.83;41.55;94177.34;5013549;28;7318;-63
2023/08/05 00:35:46;;;;;;;;;;;;;;;28.84;41.89;94182.34;5020290;28;7233;-64
2023/08/05 00:38:22;;;;;;;;;;;;;;;28.83;41.94;94180.88;4988099;28;9419;-63
2023/08/05 00:41:06;;;;;;;;;;;;;;;28.87;41.67;94192.34;4984446;28;7233;-63
2023/08/05 00:43:54;;;;;;;;;;;;;;;28.86;41.03;94190.13;4993647;28;8901;-63
2023/08/05 00:46:29;;;;;;;;;;;;;;;28.83;41.11;94191.94;4990846;28;7248;-60
2023/08/05 00:48:55;;;;;;;;;;;;;;;28.85;41.61;94191.38;4991703;28;9285;-60
2023/08/05 00:51:34;;;;;;;;;;;;;;;28.84;41.18;94185.09;4980362;28;9244;-60
2023/08/05 00:54:00;;;;;;;;;;;;;;;28.86;41.01;94188.06;4999960;28;7167;-60
2023/08/05 00:56:35;;;;;;;;;;;;;;;28.85;41.85;94186.59;4995201;28;7564;-60
2023/08/05 00:59:11;;;;;;;;;;;;;;;28.85;41.49;94191.38;4987579;28;7226;-60
2023/08/05 01:01:40;;;;;;;;;;;;;;;28.84;41.51;94190.63;4987412;28;7278;-60
2023/08/05 01:04:06;;;;;;;;;;;;;;;28.81;41.21;94194.50;4982973;28;9079;-60
2023/08/05 01:07:00;;;;;;;;;;;;;;;28.83;41.46;94189.16;4990832;28;7394;-60
2023/08/05 01:09:33;;;;;;;;;;;;;;;28.84;41.34;94196.19;5022443;28;9078;-60
2023/08/05 01:12:01;;;;;;;;;;;;;;;28.82;41.23;94195.97;4984021;28;8722;-60
2023/08/05 01:14:29;;;;;;;;;;;;;;;28.82;41.96;94198.00;4985027;28;7265;-60
2023/08/05 01:17:07;;;;;;;;;;;;;;;28.81;41.57;94202.06;4979702;28;9427;-60
2023/08/05 01:19:36;;;;;;;;;;;;;;;28.83;41.46;94199.50;4974537;28;7092;-60
2023/08/05 01:22:24;;;;;;;;;;;;;;;28.80;41.41;94201.31;4976910;28;8260;-60
2023/08/05 01:28:17;;;;;;;;;;;;;;;28.79;41.83;94190.78;4982046;28;7110;-61
2023/08/05 01:30:50;;;;;;;;;;;;;;;28.81;41.19;94191.72;4992899;28;8046;-60
2023/08/05 01:33:40;;;;;;;;;;;;;;;28.78;41.51;94187.25;4991462;28;7244;-60
2023/08/05 01:36:06;;;;;;;;;;;;;;;28.78;41.84;94186.50;4989406;28;7249;-61
2023/08/05 01:38:35;;;;;;;;;;;;;;;28.77;41.79;94180.25;4985519;28;7259;-60
2023/08/05 01:41:02;;;;;;;;;;;;;;;28.75;41.63;94173.75;4992283;28;9045;-60
2023/08/05 01:43:37;;;;;;;;;;;;;;;28.74;41.01;94175.03;5011473;28;7274;-60
2023/08/05 01:46:07;;;;;;;;;;;;;;;28.73;41.54;94173.56;4981418;28;7267;-61
2023/08/05 01:48:42;;;;;;;;;;;;;;;28.72;41.80;94172.06;4994281;28;7228;-60
2023/08/05 01:51:08;;;;;;;;;;;;;;;28.71;41.22;94171.31;4991748;28;6986;-60
2023/08/05 01:53:37;;;;;;;;;;;;;;;28.70;41.67;94182.91;4987970;28;7077;-60
2023/08/05 01:56:06;;;;;;;;;;;;;;;28.70;41.94;94180.91;4992424;28;8896;-63
2023/08/05 01:58:32;;;;;;;;;;;;;;;28.71;41.28;94182.38;4981924;28;7037;-63
2023/08/05 02:00:59;;;;;;;;;;;;;;;28.72;41.70;94181.09;4984806;28;7611;-63
2023/08/05 02:03:30;;;;;;;;;;;;;;;28.70;41.23;94180.16;4987191;28;7150;-63
2023/08/05 02:05:58;;;;;;;;;;;;;;;28.70;42.05;94172.59;4990544;28;8905;-63
2023/08/05 02:08:24;;;;;;;;;;;;;;;28.70;42.06;94164.28;5002577;28;8774;-63
2023/08/05 02:10:55;;;;;;;;;;;;;;;28.67;41.43;94159.81;4993176;28;8219;-63
2023/08/05 02:13:23;;;;;;;;;;;;;;;28.68;41.09;94164.09;4983829;28;6972;-63
2023/08/05 02:15:49;;;;;;;;;;;;;;;28.67;41.52;94161.84;4999462;28;7457;-63
2023/08/05 02:18:15;;;;;;;;;;;;;;;28.67;41.93;94148.00;5002298;28;7322;-63
2023/08/05 02:20:44;;;;;;;;;;;;;;;28.67;41.57;94148.00;4993181;28;7425;-63
2023/08/05 02:23:27;;;;;;;;;;;;;;;28.67;41.66;94148.75;4987809;28;7191;-63
2023/08/05 02:25:58;;;;;;;;;;;;;;;28.65;41.55;94134.72;4992126;28;7679;-63
2023/08/05 02:28:24;;;;;;;;;;;;;;;28.65;41.72;94143.00;4984491;28;7204;-63
2023/08/05 02:30:54;;;;;;;;;;;;;;;28.65;42.05;94143.00;4991539;28;7029;-63
2023/08/05 02:33:52;;;;;;;;;;;;;;;28.66;41.51;94147.28;4999224;28;8646;-63
2023/08/05 02:36:20;;;;;;;;;;;;;;;28.66;41.91;94147.28;5013423;28;7288;-63
2023/08/05 02:39:00;;;;;;;;;;;;;;;28.63;42.06;94142.81;5006979;28;8184;-63
2023/08/05 02:41:35;;;;;;;;;;;;;;;28.62;41.45;94141.34;4978385;28;7221;-63
2023/08/05 02:44:01;;;;;;;;;;;;;;;28.65;42.21;94148.53;4991139;28;7255;-63
2023/08/05 02:46:46;;;;;;;;;;;;;;;28.65;41.76;94140.25;5010209;28;9177;-63
2023/08/05 02:49:49;;;;;;;;;;;;;;;28.66;41.89;94146.53;4995395;28;7281;-63
2023/08/05 02:52:28;;;;;;;;;;;;;;;28.66;40.96;94147.28;4993585;28;7150;-63
2023/08/05 02:54:54;;;;;;;;;;;;;;;28.62;41.14;94141.34;5015246;28;6982;-63
2023/08/05 02:57:22;;;;;;;;;;;;;;;28.64;41.11;94149.84;5014935;28;9027;-63
2023/08/05 02:59:48;;;;;;;;;;;;;;;28.60;41.51;94141.09;5027773;28;8921;-63
2023/08/05 03:02:26;;;;;;;;;;;;;;;28.65;41.89;94147.78;4995912;28;6994;-63
2023/08/05 03:05:08;;;;;;;;;;;;;;;28.61;41.85;94148.13;4995018;28;7267;-64
2023/08/05 03:07:47;;;;;;;;;;;;;;;28.61;41.01;94150.91;5009043;28;7070;-64
2023/08/05 03:10:28;;;;;;;;;;;;;;;28.61;42.15;94145.38;4987415;28;7069;-63
2023/08/05 03:12:55;;;;;;;;;;;;;;;28.58;41.72;94157.50;4977375;28;7202;-64
2023/08/05 03:15:33;;;;;;;;;;;;;;;28.57;41.68;94153.25;4985209;28;9278;-63
2023/08/05 03:18:16;;;;;;;;;;;;;;;28.57;42.12;94164.31;4993715;28;9060;-63
2023/08/05 03:20:48;;;;;;;;;;;;;;;28.56;41.41;94167.59;4985327;28;8245;-63
2023/08/05 03:24:11;;;;;;;;;;;;;;;28.59;41.74;94172.09;5003209;28;6989;-63
2023/08/05 03:27:27;;;;;;;;;;;;;;;28.58;41.83;94176.16;5010227;28;8779;-63
2023/08/05 03:30:03;;;;;;;;;;;;;;;28.59;41.73;94175.59;4994442;28;9034;-64
2023/08/05 03:32:47;;;;;;;;;;;;;;;28.57;41.43;94167.09;5022551;28;9081;-64
2023/08/05 03:35:27;;;;;;;;;;;;;;;28.57;42.05;94171.84;4991699;28;9158;-63
2023/08/05 03:37:58;;;;;;;;;;;;;;;28.54;41.61;94170.16;5008779;28;7169;-64
2023/08/05 03:40:35;;;;;;;;;;;;;;;28.53;42.20;94183.25;4988365;28;7760;-63
2023/08/05 03:43:06;;;;;;;;;;;;;;;28.54;41.89;94168.13;4992634;28;7286;-63
2023/08/05 03:45:39;;;;;;;;;;;;;;;28.56;42.17;94167.59;4990177;28;7773;-64
2023/08/05 03:48:12;;;;;;;;;;;;;;;28.54;41.97;94176.44;4985020;28;9236;-63
2023/08/05 03:51:32;;;;;;;;;;;;;;;28.56;41.44;94182.16;4996546;28;8951;-63
2023/08/05 03:54:27;;;;;;;;;;;;;;;28.55;41.65;94186.22;4991833;28;7328;-64
2023/08/05 03:57:08;;;;;;;;;;;;;;;28.56;41.99;94179.41;4990778;28;7284;-64
2023/08/05 03:59:36;;;;;;;;;;;;;;;28.55;41.45;94186.22;4994717;28;9026;-64
2023/08/05 04:02:14;;;;;;;;;;;;;;;28.53;42.02;94183.25;4992492;28;7275;-63
2023/08/05 04:04:50;;;;;;;;;;;;;;;28.53;41.30;94180.50;4980503;28;9704;-64
2023/08/05 04:07:19;;;;;;;;;;;;;;;28.54;41.62;94187.50;4982545;28;8780;-64
2023/08/05 04:10:07;;;;;;;;;;;;;;;28.52;41.77;94187.28;4998765;28;9290;-64
2023/08/05 04:12:44;;;;;;;;;;;;;;;28.55;41.83;94179.94;4994187;28;8805;-63
2023/08/05 04:15:40;;;;;;;;;;;;;;;28.55;41.32;94180.69;4986136;28;7190;-62
2023/08/05 04:18:07;;;;;;;;;;;;;;;28.55;41.37;94183.47;4964224;28;9207;-63
2023/08/05 04:20:48;;;;;;;;;;;;;;;28.56;41.71;94187.69;4971016;28;7201;-63
2023/08/05 04:23:18;;;;;;;;;;;;;;;28.53;42.04;94182.50;4953128;28;9318;-63
2023/08/05 04:25:45;;;;;;;;;;;;;;;28.53;41.59;94186.03;4954045;28;9173;-63
2023/08/05 04:28:12;;;;;;;;;;;;;;;28.52;41.88;94184.53;4946597;28;9030;-62
2023/08/05 04:30:48;;;;;;;;;;;;;;;28.52;41.76;94184.53;4953637;28;8728;-62
2023/08/05 04:33:26;;;;;;;;;;;;;;;28.49;41.75;94177.31;4971705;28;7638;-62
2023/08/05 04:35:54;;;;;;;;;;;;;;;28.52;41.75;94187.28;4965205;28;9074;-62
2023/08/05 04:38:43;;;;;;;;;;;;;;;28.52;41.46;94189.31;4948829;28;6990;-63
2023/08/05 04:41:21;;;;;;;;;;;;;;;28.51;41.68;94185.06;4965114;28;7249;-63
2023/08/05 04:44:06;;;;;;;;;;;;;;;28.51;42.03;94180.28;4947465;28;7397;-63
2023/08/05 04:46:43;;;;;;;;;;;;;;;28.49;41.78;94182.84;4966377;28;6985;-63
2023/08/05 04:49:45;;;;;;;;;;;;;;;28.50;41.39;94178.03;4964308;28;7200;-63
2023/08/05 04:52:14;;;;;;;;;;;;;;;28.47;42.24;94182.59;4896270;29;7177;-63
2023/08/05 04:54:43;;;;;;;;;;;;;;;28.49;41.42;94182.09;4901892;29;8749;-63
2023/08/05 04:57:56;;;;;;;;;;;;;;;28.50;41.39;94186.34;4932616;29;7123;-62
2023/08/05 05:00:35;;;;;;;;;;;;;;;28.47;41.72;94190.19;4921498;29;8205;-63
2023/08/05 05:03:05;;;;;;;;;;;;;;;28.46;41.68;94200.50;4910950;29;9380;-63
2023/08/05 05:05:47;;;;;;;;;;;;;;;28.47;41.23;94207.50;4916544;29;7235;-63
2023/08/05 05:08:38;;;;;;;;;;;;;;;28.46;41.76;94197.72;4930743;29;7593;-63
2023/08/05 05:11:15;;;;;;;;;;;;;;;28.47;41.58;94193.69;4915066;29;7123;-63
2023/08/05 05:14:06;;;;;;;;;;;;;;;28.48;42.20;94197.94;4909545;29;9101;-63
2023/08/05 05:16:52;;;;;;;;;;;;;;;28.46;42.20;94192.19;4910340;29;7866;-63
2023/08/05 05:19:19;;;;;;;;;;;;;;;28.47;41.32;94192.94;4929561;29;7265;-63
2023/08/05 05:21:45;;;;;;;;;;;;;;;28.46;41.87;94202.50;4917158;29;9116;-63
2023/08/05 05:24:22;;;;;;;;;;;;;;;28.46;41.29;94200.50;4922520;29;7255;-63
2023/08/05 05:26:49;;;;;;;;;;;;;;;28.45;41.51;94198.28;4971681;28;7012;-61
2023/08/05 05:29:29;;;;;;;;;;;;;;;28.45;41.40;94196.22;4991305;28;8763;-62
2023/08/05 05:32:07;;;;;;;;;;;;;;;28.45;41.64;94199.00;4990668;28;7586;-61
2023/08/05 05:34:54;;;;;;;;;;;;;;;28.45;41.60;94201.03;4990023;28;9449;-61
2023/08/05 05:37:41;;;;;;;;;;;;;;;28.41;41.93;94204.13;4985224;28;7902;-61
2023/08/05 05:40:09;;;;;;;;;;;;;;;28.44;41.62;94207.84;4984526;28;7103;-61
2023/08/05 05:42:36;;;;;;;;;;;;;;;28.42;42.04;94210.41;5001130;28;7084;-62
2023/08/05 05:45:05;;;;;;;;;;;;;;;28.41;41.51;94206.88;4985837;28;6981;-61
2023/08/05 05:47:31;;;;;;;;;;;;;;;28.40;42.16;94202.66;4994883;28;6972;-61
2023/08/05 05:49:57;;;;;;;;;;;;;;;28.41;41.42;94208.91;4989184;28;7204;-61
2023/08/05 05:52:23;;;;;;;;;;;;;;;28.43;41.47;94204.31;4988329;28;8416;-61
2023/08/05 05:55:27;;;;;;;;;;;;;;;28.45;42.04;94209.34;4988926;28;7399;-61
2023/08/05 05:58:05;;;;;;;;;;;;;;;28.44;41.99;94207.84;4981042;28;9065;-61
2023/08/05 06:01:01;;;;;;;;;;;;;;;28.43;41.76;94212.63;4984804;28;7199;-60
2023/08/05 06:03:46;;;;;;;;;;;;;;;28.44;42.27;94213.38;5010306;28;9092;-62
2023/08/05 06:06:28;;;;;;;;;;;;;;;28.43;42.04;94218.16;4986755;28;9234;-62
2023/08/05 06:09:11;;;;;;;;;;;;;;;28.43;41.35;94220.19;4982107;28;6971;-61
2023/08/05 06:12:03;;;;;;;;;;;;;;;28.44;41.99;94227.97;4991500;28;6933;-61
2023/08/05 06:14:51;;;;;;;;;;;;;;;28.44;42.23;94225.19;4993886;28;7089;-62
2023/08/05 06:17:18;;;;;;;;;;;;;;;28.44;41.90;94235.50;5008682;28;9721;-61
2023/08/05 06:20:04;;;;;;;;;;;;;;;28.41;41.89;94226.25;4994134;28;7004;-61
2023/08/05 06:22:32;;;;;;;;;;;;;;;28.40;41.28;94235.84;5001097;28;7256;-61
2023/08/05 06:25:18;;;;;;;;;;;;;;;28.41;41.45;94231.03;4989997;28;7251;-61
2023/08/05 06:28:10;;;;;;;;;;;;;;;28.39;41.74;94226.03;5003186;28;7786;-61
2023/08/05 06:30:57;;;;;;;;;;;;;;;28.38;41.78;94232.13;5005408;28;7672;-61
2023/08/05 06:33:32;;;;;;;;;;;;;;;28.37;41.96;94228.59;4983784;28;9297;-62
2023/08/05 06:36:13;;;;;;;;;;;;;;;28.39;42.00;94231.56;4981410;28;9293;-63
2023/08/05 06:39:08;;;;;;;;;;;;;;;28.38;42.10;94232.88;4988596;28;6990;-63
2023/08/05 06:41:34;;;;;;;;;;;;;;;28.37;41.99;94242.44;4929905;29;7129;-63
2023/08/05 06:44:00;;;;;;;;;;;;;;;28.35;41.82;94233.91;4929386;29;7320;-62
2023/08/05 06:46:26;;;;;;;;;;;;;;;28.35;41.96;94231.91;4928971;29;8722;-62
2023/08/05 06:48:52;;;;;;;;;;;;;;;28.37;41.77;94231.38;4928121;29;9385;-63
2023/08/05 06:51:31;;;;;;;;;;;;;;;28.36;42.03;94227.13;4912363;29;7164;-63
2023/08/05 06:54:01;;;;;;;;;;;;;;;28.38;41.60;94226.59;4914500;29;9086;-63
2023/08/05 06:56:47;;;;;;;;;;;;;;;28.36;41.85;94229.91;4903137;29;6860;-63
2023/08/05 06:59:19;;;;;;;;;;;;;;;28.35;41.70;94229.13;4901627;29;7375;-63
2023/08/05 07:01:59;;;;;;;;;;;;;;;28.37;41.41;94220.31;4902944;29;7337;-63
2023/08/05 07:04:34;;;;;;;;;;;;;;;28.36;41.90;94218.81;4898771;29;7275;-63
2023/08/05 07:07:01;;;;;;;;;;;;;;;28.35;41.94;94220.84;4898877;29;8775;-63
2023/08/05 07:09:37;;;;;;;;;;;;;;;28.32;41.96;94210.84;4909425;29;7549;-63
2023/08/05 07:12:23;;;;;;;;;;;;;;;28.35;41.74;94212.53;4905742;29;8314;-63
2023/08/05 07:15:08;;;;;;;;;;;;;;;28.33;42.43;94211.59;4891444;29;7177;-63
2023/08/05 07:17:41;;;;;;;;;;;;;;;28.34;41.28;94208.28;4915513;28;7233;-63
2023/08/05 07:20:24;;;;;;;;;;;;;;;28.36;41.98;94202.22;4989123;28;7335;-63
2023/08/05 07:23:03;;;;;;;;;;;;;;;28.35;41.93;94200.72;4993114;28;7029;-63
2023/08/05 07:25:59;;;;;;;;;;;;;;;28.37;41.71;94195.41;4991915;28;9564;-62
2023/08/05 07:28:34;;;;;;;;;;;;;;;28.36;41.86;94199.47;4994183;28;6966;-63
2023/08/05 07:31:16;;;;;;;;;;;;;;;28.36;41.49;94196.69;4987085;28;8731;-63
2023/08/05 07:33:51;;;;;;;;;;;;;;;28.33;41.93;94190.19;5003134;28;9367;-63
2023/08/05 07:36:22;;;;;;;;;;;;;;;28.33;41.78;94194.97;4990960;28;9278;-63
2023/08/05 07:38:55;;;;;;;;;;;;;;;28.34;42.29;94188.91;4984898;28;7273;-63
2023/08/05 07:41:27;;;;;;;;;;;;;;;28.34;41.72;94196.47;4986606;28;9120;-63
2023/08/05 07:43:58;;;;;;;;;;;;;;;28.33;42.27;94181.16;4981151;28;8965;-64
2023/08/05 07:46:41;;;;;;;;;;;;;;;28.33;42.68;94181.91;4990721;28;8227;-62
2023/08/05 07:49:11;;;;;;;;;;;;;;;28.35;42.53;94189.66;4988087;28;7107;-62
2023/08/05 07:52:06;;;;;;;;;;;;;;;28.33;41.89;94181.16;4988009;28;6934;-61
2023/08/05 07:54:33;;;;;;;;;;;;;;;28.35;42.23;94190.41;4951267;28;9269;-61
2023/08/05 07:57:12;;;;;;;;;;;;;;;28.35;41.80;94189.66;4969573;28;7675;-61
2023/08/05 08:00:12;;;;;;;;;;;;;;;28.35;42.25;94195.19;4954454;28;7235;-61
2023/08/05 08:02:56;;;;;;;;;;;;;;;28.34;41.99;94196.47;4875051;29;7545;-61
2023/08/05 08:05:34;;;;;;;;;;;;;;;28.34;42.89;94199.97;4848559;29;8713;-61
2023/08/05 08:08:52;;;;;;;;;;;;;;;28.34;42.50;94190.94;4876685;29;8716;-61
2023/08/05 08:11:30;;;;;;;;;;;;;;;28.37;42.49;94200.94;4837825;29;8830;-62
2023/08/05 08:13:59;;;;;;;;;;;;;;;28.39;41.50;94198.38;4819014;29;9456;-62
2023/08/05 08:16:28;;;;;;;;;;;;;;;28.36;42.15;94193.94;4831366;29;7248;-62
2023/08/05 08:19:04;;;;;;;;;;;;;;;28.40;41.99;94205.41;4834958;29;8924;-63
2023/08/05 08:21:32;;;;;;;;;;;;;;;28.37;41.67;94195.41;4823025;29;9319;-62
2023/08/05 08:24:08;;;;;;;;;;;;;;;28.42;42.27;94204.88;4834999;29;9129;-62
2023/08/05 08:26:50;;;;;;;;;;;;;;;28.43;42.16;94198.06;4824534;29;7316;-61
2023/08/05 08:29:25;;;;;;;;;;;;;;;28.40;42.10;94197.13;4837950;29;7876;-62
2023/08/05 08:32:08;;;;;;;;;;;;;;;28.41;41.47;94189.53;4828872;29;7221;-62
2023/08/05 08:34:54;;;;;;;;;;;;;;;28.42;41.88;94194.56;4831118;29;9599;-61
2023/08/05 08:37:40;;;;;;;;;;;;;;;28.41;41.67;94195.81;4842322;29;9125;-61
2023/08/05 08:40:08;;;;;;;;;;;;;;;28.45;41.76;94192.75;4929322;28;7269;-61
2023/08/05 08:42:37;;;;;;;;;;;;;;;28.44;41.41;94192.00;4947881;28;7879;-62
2023/08/05 08:45:09;;;;;;;;;;;;;;;28.45;41.26;94199.00;4930938;28;8864;-62
2023/08/05 08:47:37;;;;;;;;;;;;;;;28.44;41.29;94194.75;4980521;28;8384;-62
2023/08/05 08:50:04;;;;;;;;;;;;;;;28.47;41.66;94195.72;4987198;28;7630;-61
2023/08/05 08:52:32;;;;;;;;;;;;;;;28.46;41.30;94189.44;4985837;28;7266;-61
2023/08/05 08:55:00;;;;;;;;;;;;;;;28.49;40.92;94184.84;4986141;28;7448;-62
2023/08/05 08:57:26;;;;;;;;;;;;;;;28.50;41.17;94186.34;4983318;28;7475;-62
2023/08/05 08:59:58;;;;;;;;;;;;;;;28.52;41.26;94181.75;4994451;28;9214;-61
2023/08/05 09:02:44;;;;;;;;;;;;;;;28.52;41.07;94175.47;4989694;28;9101;-62
2023/08/05 09:05:24;;;;;;;;;;;;;;;28.51;41.71;94174.75;4988469;28;7358;-62
2023/08/05 09:08:00;;;;;;;;;;;;;;;28.51;41.23;94171.97;4988953;28;7000;-62
2023/08/05 09:11:02;;;;;;;;;;;;;;;28.52;40.97;94170.69;4987011;28;9056;-62
2023/08/05 09:13:33;;;;;;;;;;;;;;;28.53;41.10;94177.72;5013527;28;8776;-62
2023/08/05 09:16:01;;;;;;;;;;;;;;;28.52;41.48;94169.94;4990564;28;7132;-62
2023/08/05 09:18:51;;;;;;;;;;;;;;;28.52;41.97;94162.38;4984716;28;9639;-62
2023/08/05 09:21:47;;;;;;;;;;;;;;;28.52;41.55;94176.22;5013085;28;7247;-62
2023/08/05 09:24:31;;;;;;;;;;;;;;;28.48;41.56;94170.28;4989962;28;7235;-62
2023/08/05 09:27:05;;;;;;;;;;;;;;;28.50;41.16;94178.03;5002724;28;9140;-62
2023/08/05 09:29:48;;;;;;;;;;;;;;;28.52;41.67;94172.72;4999887;28;9217;-62
2023/08/05 09:32:26;;;;;;;;;;;;;;;28.53;41.60;94166.66;4985701;28;7310;-62
2023/08/05 09:34:58;;;;;;;;;;;;;;;28.51;41.36;94160.91;4988712;28;8708;-62
2023/08/05 09:37:38;;;;;;;;;;;;;;;28.48;41.24;94158.47;4984481;28;7988;-62
2023/08/05 09:40:21;;;;;;;;;;;;;;;28.45;41.84;94154.72;4991791;28;7813;-62
2023/08/05 09:42:50;;;;;;;;;;;;;;;28.41;41.43;94148.78;4988041;28;9537;-62
2023/08/05 09:45:20;;;;;;;;;;;;;;;28.40;42.10;94155.63;4987842;28;6988;-62
2023/08/05 09:47:49;;;;;;;;;;;;;;;28.38;42.18;94156.13;4990215;28;6982;-62
2023/08/05 09:50:18;;;;;;;;;;;;;;;28.38;41.86;94141.56;4988618;28;9077;-63
2023/08/05 09:53:14;;;;;;;;;;;;;;;28.39;41.85;94145.81;4979793;28;8563;-63
2023/08/05 09:55:54;;;;;;;;;;;;;;;28.41;41.40;94131.44;4994603;28;9184;-62
2023/08/05 09:58:32;;;;;;;;;;;;;;;28.40;42.29;94129.97;5007058;28;6993;-63
2023/08/05 10:01:12;;;;;;;;;;;;;;;28.40;41.86;94135.50;4992069;28;8846;-62
2023/08/05 10:03:39;;;;;;;;;;;;;;;28.38;41.34;94131.22;5008992;28;9118;-63
2023/08/05 10:06:17;;;;;;;;;;;;;;;28.40;41.74;94136.25;4991207;28;9038;-63
2023/08/05 10:08:56;;;;;;;;;;;;;;;28.41;41.55;94131.44;5007067;28;7482;-62
2023/08/05 10:11:56;;;;;;;;;;;;;;;28.42;42.03;94125.38;5007692;28;9218;-62
2023/08/05 10:14:28;;;;;;;;;;;;;;;28.41;41.63;94128.69;4946593;29;7797;-61
2023/08/05 10:16:54;;;;;;;;;;;;;;;28.41;41.53;94121.13;4946904;29;7323;-62
2023/08/05 10:19:32;;;;;;;;;;;;;;;28.41;41.20;94123.88;4935116;29;7280;-62
2023/08/05 10:22:10;;;;;;;;;;;;;;;28.41;41.09;94112.81;4928209;29;9414;-62
2023/08/05 10:25:21;;;;;;;;;;;;;;;28.42;41.31;94110.81;4945263;28;7426;-62
2023/08/05 10:28:00;;;;;;;;;;;;;;;28.42;41.25;94116.34;4952961;28;8331;-62
2023/08/05 10:30:44;;;;;;;;;;;;;;;28.44;41.73;94113.78;4954133;28;7285;-62
2023/08/05 10:33:33;;;;;;;;;;;;;;;28.44;41.16;94102.72;4924882;28;9024;-62
2023/08/05 10:36:07;;;;;;;;;;;;;;;28.42;41.51;94096.97;4930902;29;9244;-62
2023/08/05 10:39:02;;;;;;;;;;;;;;;28.44;41.25;94103.47;4935334;29;8969;-62
2023/08/05 10:41:35;;;;;;;;;;;;;;;28.40;40.90;94097.53;4926411;28;9052;-62
2023/08/05 10:44:01;;;;;;;;;;;;;;;28.42;41.04;94102.50;4931464;28;8791;-62
2023/08/05 10:46:38;;;;;;;;;;;;;;;28.44;40.72;94103.47;4916019;29;9072;-61
2023/08/05 10:49:05;;;;;;;;;;;;;;;28.46;41.27;94106.44;4940018;28;9144;-61
2023/08/05 10:51:32;;;;;;;;;;;;;;;28.46;41.14;94095.38;4989036;28;7076;-62
2023/08/05 10:53:59;;;;;;;;;;;;;;;28.46;40.55;94095.38;4987594;28;8797;-61
2023/08/05 10:56:55;;;;;;;;;;;;;;;28.45;41.32;94091.09;4985234;28;7672;-62
2023/08/05 10:59:22;;;;;;;;;;;;;;;28.48;40.85;94092.81;4975953;28;7238;-61
2023/08/05 11:01:58;;;;;;;;;;;;;;;28.49;41.02;94085.25;4990289;28;7022;-61
2023/08/05 11:05:03;;;;;;;;;;;;;;;28.51;40.43;94086.22;4993764;28;9160;-62
2023/08/05 11:07:46;;;;;;;;;;;;;;;28.52;40.51;94079.38;4975259;28;7279;-61
2023/08/05 11:10:49;;;;;;;;;;;;;;;28.52;40.61;94076.63;4989856;28;7172;-61
2023/08/05 11:13:37;;;;;;;;;;;;;;;28.49;41.15;94071.41;4914541;29;7018;-61
2023/08/05 11:16:27;;;;;;;;;;;;;;;28.50;41.14;94073.66;4900007;29;9494;-55
2023/08/05 11:19:15;;;;;;;;;;;;;;;28.51;41.01;94068.84;4901602;29;9418;-53
2023/08/05 11:21:45;;;;;;;;;;;;;;;28.51;40.85;94061.31;4913529;29;8760;-55
2023/08/05 11:24:21;;;;;;;;;;;;;;;28.46;40.33;94051.09;4915029;29;9476;-54
2023/08/05 11:26:57;;;;;;;;;;;;;;;28.45;40.66;94044.06;4899505;29;7085;-55
2023/08/05 11:29:32;;;;;;;;;;;;;;;28.45;39.64;94043.34;4909034;29;6853;-55
2023/08/05 11:32:02;;;;;;;;;;;;;;;28.43;39.66;94052.16;4898399;29;7953;-55
2023/08/05 11:34:30;;;;;;;;;;;;;;;28.42;39.20;94056.22;4894333;29;9103;-55
2023/08/05 11:37:03;;;;;;;;;;;;;;;28.46;39.60;94053.88;4905649;29;9294;-55
2023/08/05 11:39:48;;;;;;;;;;;;;;;28.54;39.92;94046.38;4904944;29;8814;-55
2023/08/05 11:44:50;;;;;;;;;;;;;;;28.61;39.80;94040.22;4987531;28;7089;-83
2023/08/05 11:47:16;;;;;;;;;;;;;;;28.65;39.39;94037.84;5004799;28;9066;-83
2023/08/05 11:49:55;;;;;;;;;;;;;;;28.68;39.61;94033.25;4987566;28;7195;-85
2023/08/05 11:52:24;;;;;;;;;;;;;;;28.69;39.23;94029.94;4990002;28;9040;-85
2023/08/05 11:54:58;;;;;;;;;;;;;;;28.72;39.82;94028.88;4985901;28;9059;-85
2023/08/05 11:57:25;;;;;;;;;;;;;;;28.73;39.25;94030.34;4989695;28;8735;-83
2023/08/05 12:00:08;;;;;;;;;;;;;;;28.74;38.82;94023.53;5003187;28;7411;-82
2023/08/05 12:02:35;;;;;;;;;;;;;;;28.75;39.21;94016.72;4986645;28;7270;-83
2023/08/05 12:05:02;;;;;;;;;;;;;;;28.72;39.68;94009.50;4988715;28;9141;-83
2023/08/05 12:07:29;;;;;;;;;;;;;;;28.71;39.57;94010.78;5002097;28;9071;-83
2023/08/05 12:10:12;;;;;;;;;;;;;;;28.78;39.68;94018.41;4989988;28;8866;-82
2023/08/05 12:12:45;;;;;;;;;;;;;;;28.74;39.20;94020.03;4988049;28;8788;-82
2023/08/05 12:15:13;;;;;;;;;;;;;;;28.81;40.01;94033.19;4986103;28;8814;-84
2023/08/05 12:17:50;;;;;;;;;;;;;;;28.81;39.20;94025.63;4993558;28;7196;-84
2023/08/05 12:20:26;;;;;;;;;;;;;;;28.82;39.81;94026.34;5004313;28;9041;-83
2023/08/05 12:22:58;;;;;;;;;;;;;;;28.83;39.47;94019.56;4987314;28;9096;-85
2023/08/05 12:25:29;;;;;;;;;;;;;;;28.80;39.30;94015.84;4988158;28;7078;-85
2023/08/05 12:27:57;;;;;;;;;;;;;;;28.85;40.45;94023.28;5003737;28;7239;-84
2023/08/05 12:30:24;;;;;;;;;;;;;;;28.83;39.66;94012.00;4988602;28;9291;-84
2023/08/05 12:32:54;;;;;;;;;;;;;;;28.88;39.92;94013.13;5006388;28;9077;-84
2023/08/05 12:35:20;;;;;;;;;;;;;;;28.90;39.76;94016.84;4989146;28;6871;-84
2023/08/05 12:37:46;;;;;;;;;;;;;;;28.93;40.17;94010.22;5001061;28;9036;-84
2023/08/05 12:40:16;;;;;;;;;;;;;;;28.90;39.92;94007.81;5022107;28;8710;-84
2023/08/05 12:42:42;;;;;;;;;;;;;;;28.96;39.70;94009.16;5021767;28;8709;-84
2023/08/05 12:45:10;;;;;;;;;;;;;;;28.93;40.12;93995.63;5024736;28;9040;-84
2023/08/05 12:47:38;;;;;;;;;;;;;;;29.00;40.00;94004.00;5022230;28;8777;-84
2023/08/05 12:50:08;;;;;;;;;;;;;;;28.95;39.46;93988.28;5007317;28;9049;-84
2023/08/05 12:52:35;;;;;;;;;;;;;;;28.97;40.26;93988.47;5007339;28;7217;-85
2023/08/05 12:55:03;;;;;;;;;;;;;;;29.03;40.13;93980.78;5005908;28;9026;-84
2023/08/05 12:57:32;;;;;;;;;;;;;;;29.04;39.95;93987.78;5003635;28;7492;-86
2023/08/05 13:00:01;;;;;;;;;;;;;;;29.03;40.15;93980.78;5024685;28;9116;-86
2023/08/05 13:02:28;;;;;;;;;;;;;;;29.12;39.72;93992.63;5023744;28;8725;-87
2023/08/05 13:04:56;;;;;;;;;;;;;;;29.06;39.95;93995.53;5018871;28;7036;-86
2023/08/05 13:07:22;;;;;;;;;;;;;;;29.13;39.74;93994.09;5018368;28;7114;-86
2023/08/05 13:09:48;;;;;;;;;;;;;;;29.10;39.91;93990.41;5018573;28;7219;-86
2023/08/05 13:12:15;;;;;;;;;;;;;;;29.09;39.63;93994.47;5002008;28;7259;-87
2023/08/05 13:14:42;;;;;;;;;;;;;;;29.15;39.90;93983.22;5003883;28;7231;-87
2023/08/05 13:17:11;;;;;;;;;;;;;;;29.12;39.67;93987.09;5003268;28;6996;-87
2023/08/05 13:19:37;;;;;;;;;;;;;;;29.14;40.20;93979.00;5019983;28;8996;-87
2023/08/05 13:22:03;;;;;;;;;;;;;;;29.20;39.59;93982.38;5027607;28;7580;-87
2023/08/05 13:24:31;;;;;;;;;;;;;;;29.18;39.99;93974.63;5006669;28;8759;-87
2023/08/05 13:26:57;;;;;;;;;;;;;;;29.23;39.93;93976.47;5009855;28;9130;-87
2023/08/05 13:29:23;;;;;;;;;;;;;;;29.19;39.83;93967.78;5002437;28;6867;-85
2023/08/05 13:31:49;;;;;;;;;;;;;;;29.18;39.93;93965.56;5021149;28;8720;-86
2023/08/05 13:34:15;;;;;;;;;;;;;;;29.23;40.41;93981.28;5022221;28;7269;-86
2023/08/05 13:36:44;;;;;;;;;;;;;;;29.21;40.31;93967.25;5025178;28;9040;-85
2023/08/05 13:39:10;;;;;;;;;;;;;;;29.22;40.36;93977.78;5020076;28;9072;-86
2023/08/05 13:41:36;;;;;;;;;;;;;;;29.23;40.08;93970.22;5003442;28;8713;-86
2023/08/05 13:44:02;;;;;;;;;;;;;;;29.24;39.96;93974.44;5022507;28;8805;-86
2023/08/05 13:46:28;;;;;;;;;;;;;;;29.24;39.95;93977.22;5003544;28;9059;-86
2023/08/05 13:48:57;;;;;;;;;;;;;;;29.23;40.48;93953.59;5012005;28;8807;-86